KAPC

Napa County Airport

Napa, California, USA
METAR KAPC 241954Z 20008KT 10SM CLR 12/01 A3038 RMK AO2 SLP278 T01170011
Observed Flight Rules
Feb-24 @ 19:54 UTC (20 minutes ago) Visual Flight Rules
Wind Visibility Clouds
200° at 8 knots 10 miles
  • Clear skies
Temperatures Readings
Current 12°C / 54°F
Dewpoint 1°C / 34°F
Humidity 47%
Altimeter 30.38" Hg
Pressure 1027.8 hPa
Elevation 13
METAR KAPC 241954Z 20008KT 10SM CLR 12/01 A3038 RMK AO2 SLP278 T01170011
Observed Flight Rules
Feb-24 @ 19:54 UTC
(20 minutes ago)
VFR
Wind Visibility
200° at 8 knots 10 miles
Clouds
  • Clear skies
Temperature Dewpoint
12°C / 54°F 1°C / 34°F
Humidity Altimeter Pressure
47% 30.38" Hg 1027.8 hPa